sensor_id;sensor_type;location;lat;lon;timestamp;P1;durP1;ratioP1;P2;durP2;ratioP2
46729;SDS011;32476;50.002;11.854;2023-11-21T00:02:25;9.10;;;5.00;;
46729;SDS011;32476;50.002;11.854;2023-11-21T00:04:52;10.03;;;4.00;;
46729;SDS011;32476;50.002;11.854;2023-11-21T00:07:18;8.57;;;4.17;;
46729;SDS011;32476;50.002;11.854;2023-11-21T00:09:45;7.63;;;4.60;;
46729;SDS011;32476;50.002;11.854;2023-11-21T00:12:11;8.00;;;4.80;;
46729;SDS011;32476;50.002;11.854;2023-11-21T00:14:39;18.37;;;6.30;;
46729;SDS011;32476;50.002;11.854;2023-11-21T00:17:06;10.57;;;6.10;;
46729;SDS011;32476;50.002;11.854;2023-11-21T00:19:32;11.93;;;5.30;;
46729;SDS011;32476;50.002;11.854;2023-11-21T00:21:58;12.17;;;4.97;;
46729;SDS011;32476;50.002;11.854;2023-11-21T00:24:26;9.63;;;4.77;;
46729;SDS011;32476;50.002;11.854;2023-11-21T00:26:51;11.43;;;5.10;;
46729;SDS011;32476;50.002;11.854;2023-11-21T00:29:18;12.30;;;4.80;;
46729;SDS011;32476;50.002;11.854;2023-11-21T00:31:45;9.47;;;4.50;;
46729;SDS011;32476;50.002;11.854;2023-11-21T00:34:11;12.00;;;5.03;;
46729;SDS011;32476;50.002;11.854;2023-11-21T00:36:37;9.47;;;4.90;;
46729;SDS011;32476;50.002;11.854;2023-11-21T00:39:05;6.80;;;4.67;;
46729;SDS011;32476;50.002;11.854;2023-11-21T00:41:31;16.43;;;5.47;;
46729;SDS011;32476;50.002;11.854;2023-11-21T00:43:57;16.70;;;6.13;;
46729;SDS011;32476;50.002;11.854;2023-11-21T00:46:26;11.80;;;6.73;;
46729;SDS011;32476;50.002;11.854;2023-11-21T00:48:55;10.83;;;5.40;;
46729;SDS011;32476;50.002;11.854;2023-11-21T00:51:21;12.20;;;4.57;;
46729;SDS011;32476;50.002;11.854;2023-11-21T00:53:49;8.93;;;4.77;;
46729;SDS011;32476;50.002;11.854;2023-11-21T00:56:14;10.17;;;4.73;;
46729;SDS011;32476;50.002;11.854;2023-11-21T00:58:40;17.13;;;5.97;;
46729;SDS011;32476;50.002;11.854;2023-11-21T01:01:13;10.03;;;4.63;;
46729;SDS011;32476;50.002;11.854;2023-11-21T01:03:39;13.80;;;5.30;;
46729;SDS011;32476;50.002;11.854;2023-11-21T01:06:05;8.23;;;4.90;;
46729;SDS011;32476;50.002;11.854;2023-11-21T01:08:34;9.83;;;4.13;;
46729;SDS011;32476;50.002;11.854;2023-11-21T01:11:01;11.10;;;4.27;;
46729;SDS011;32476;50.002;11.854;2023-11-21T01:13:27;7.50;;;4.30;;
46729;SDS011;32476;50.002;11.854;2023-11-21T01:15:55;8.93;;;4.10;;
46729;SDS011;32476;50.002;11.854;2023-11-21T01:18:21;12.20;;;4.33;;
46729;SDS011;32476;50.002;11.854;2023-11-21T01:20:47;13.33;;;4.57;;
46729;SDS011;32476;50.002;11.854;2023-11-21T01:23:14;10.97;;;4.93;;
46729;SDS011;32476;50.002;11.854;2023-11-21T01:25:40;6.40;;;4.57;;
46729;SDS011;32476;50.002;11.854;2023-11-21T01:28:06;7.50;;;4.23;;
46729;SDS011;32476;50.002;11.854;2023-11-21T01:30:33;10.53;;;4.17;;
46729;SDS011;32476;50.002;11.854;2023-11-21T01:33:00;9.77;;;4.50;;
46729;SDS011;32476;50.002;11.854;2023-11-21T01:35:26;9.87;;;4.30;;
46729;SDS011;32476;50.002;11.854;2023-11-21T01:37:53;8.00;;;3.77;;
46729;SDS011;32476;50.002;11.854;2023-11-21T01:40:19;11.47;;;3.70;;
46729;SDS011;32476;50.002;11.854;2023-11-21T01:42:46;6.63;;;3.43;;
46729;SDS011;32476;50.002;11.854;2023-11-21T01:45:14;7.77;;;4.07;;
46729;SDS011;32476;50.002;11.854;2023-11-21T01:47:41;7.53;;;3.60;;
46729;SDS011;32476;50.002;11.854;2023-11-21T01:50:09;4.63;;;3.17;;
46729;SDS011;32476;50.002;11.854;2023-11-21T01:52:43;6.03;;;2.80;;
46729;SDS011;32476;50.002;11.854;2023-11-21T01:55:10;5.83;;;2.00;;
46729;SDS011;32476;50.002;11.854;2023-11-21T01:57:37;6.67;;;1.70;;
46729;SDS011;32476;50.002;11.854;2023-11-21T02:00:05;5.17;;;1.70;;
46729;SDS011;32476;50.002;11.854;2023-11-21T02:02:47;4.80;;;1.50;;
46729;SDS011;32476;50.002;11.854;2023-11-21T02:05:15;3.37;;;1.30;;
46729;SDS011;32476;50.002;11.854;2023-11-21T02:07:43;4.17;;;1.50;;
46729;SDS011;32476;50.002;11.854;2023-11-21T02:10:10;2.97;;;1.60;;
46729;SDS011;32476;50.002;11.854;2023-11-21T02:12:41;3.57;;;1.27;;
46729;SDS011;32476;50.002;11.854;2023-11-21T02:15:08;3.53;;;1.40;;
46729;SDS011;32476;50.002;11.854;2023-11-21T02:17:42;3.13;;;1.30;;
46729;SDS011;32476;50.002;11.854;2023-11-21T02:20:11;5.97;;;1.30;;
46729;SDS011;32476;50.002;11.854;2023-11-21T02:22:49;7.33;;;1.57;;
46729;SDS011;32476;50.002;11.854;2023-11-21T02:25:15;3.80;;;1.43;;
46729;SDS011;32476;50.002;11.854;2023-11-21T02:27:40;3.10;;;1.57;;
46729;SDS011;32476;50.002;11.854;2023-11-21T02:30:09;4.17;;;1.40;;
46729;SDS011;32476;50.002;11.854;2023-11-21T02:32:38;3.47;;;1.47;;
46729;SDS011;32476;50.002;11.854;2023-11-21T02:35:05;4.47;;;2.00;;
46729;SDS011;32476;50.002;11.854;2023-11-21T02:37:34;3.53;;;2.03;;
46729;SDS011;32476;50.002;11.854;2023-11-21T02:40:01;5.73;;;2.17;;
46729;SDS011;32476;50.002;11.854;2023-11-21T02:42:31;3.40;;;1.80;;
46729;SDS011;32476;50.002;11.854;2023-11-21T02:44:58;5.20;;;2.30;;
46729;SDS011;32476;50.002;11.854;2023-11-21T02:47:24;12.80;;;3.40;;
46729;SDS011;32476;50.002;11.854;2023-11-21T02:49:50;4.20;;;2.60;;
46729;SDS011;32476;50.002;11.854;2023-11-21T02:52:19;7.00;;;3.00;;
46729;SDS011;32476;50.002;11.854;2023-11-21T02:54:44;4.70;;;2.80;;
46729;SDS011;32476;50.002;11.854;2023-11-21T02:57:10;5.93;;;2.63;;
46729;SDS011;32476;50.002;11.854;2023-11-21T02:59:38;8.33;;;3.33;;
46729;SDS011;32476;50.002;11.854;2023-11-21T03:02:03;7.53;;;3.10;;
46729;SDS011;32476;50.002;11.854;2023-11-21T03:04:29;9.87;;;3.33;;
46729;SDS011;32476;50.002;11.854;2023-11-21T03:06:59;10.63;;;3.47;;
46729;SDS011;32476;50.002;11.854;2023-11-21T03:09:25;9.27;;;3.23;;
46729;SDS011;32476;50.002;11.854;2023-11-21T03:11:52;11.63;;;3.87;;
46729;SDS011;32476;50.002;11.854;2023-11-21T03:14:20;9.80;;;3.57;;
46729;SDS011;32476;50.002;11.854;2023-11-21T03:16:46;5.53;;;3.07;;
46729;SDS011;32476;50.002;11.854;2023-11-21T03:19:12;8.30;;;3.47;;
46729;SDS011;32476;50.002;11.854;2023-11-21T03:21:41;5.40;;;3.80;;
46729;SDS011;32476;50.002;11.854;2023-11-21T03:24:07;8.37;;;4.23;;
46729;SDS011;32476;50.002;11.854;2023-11-21T03:26:33;7.13;;;4.27;;
46729;SDS011;32476;50.002;11.854;2023-11-21T03:29:00;8.60;;;3.90;;
46729;SDS011;32476;50.002;11.854;2023-11-21T03:31:26;17.73;;;4.00;;
46729;SDS011;32476;50.002;11.854;2023-11-21T03:33:52;12.70;;;3.83;;
46729;SDS011;32476;50.002;11.854;2023-11-21T03:36:20;34.87;;;5.27;;
46729;SDS011;32476;50.002;11.854;2023-11-21T03:38:47;28.07;;;4.70;;
46729;SDS011;32476;50.002;11.854;2023-11-21T03:41:14;16.67;;;4.50;;
46729;SDS011;32476;50.002;11.854;2023-11-21T03:43:41;38.57;;;6.27;;
46729;SDS011;32476;50.002;11.854;2023-11-21T03:46:07;63.63;;;8.53;;
46729;SDS011;32476;50.002;11.854;2023-11-21T03:48:33;37.83;;;6.00;;
46729;SDS011;32476;50.002;11.854;2023-11-21T03:51:00;51.87;;;5.87;;
46729;SDS011;32476;50.002;11.854;2023-11-21T03:53:26;50.80;;;5.67;;
46729;SDS011;32476;50.002;11.854;2023-11-21T03:55:52;87.37;;;8.77;;
46729;SDS011;32476;50.002;11.854;2023-11-21T03:58:19;229.87;;;15.03;;
46729;SDS011;32476;50.002;11.854;2023-11-21T04:00:46;101.13;;;7.60;;
46729;SDS011;32476;50.002;11.854;2023-11-21T04:03:14;100.47;;;10.23;;
46729;SDS011;32476;50.002;11.854;2023-11-21T04:05:42;23.93;;;3.30;;
46729;SDS011;32476;50.002;11.854;2023-11-21T04:08:08;2.50;;;2.00;;
46729;SDS011;32476;50.002;11.854;2023-11-21T04:10:33;4.70;;;2.90;;
46729;SDS011;32476;50.002;11.854;2023-11-21T04:13:01;2.80;;;2.47;;
46729;SDS011;32476;50.002;11.854;2023-11-21T04:15:27;2.17;;;1.97;;
46729;SDS011;32476;50.002;11.854;2023-11-21T04:17:53;2.67;;;2.43;;
46729;SDS011;32476;50.002;11.854;2023-11-21T04:20:20;1.60;;;1.40;;
46729;SDS011;32476;50.002;11.854;2023-11-21T04:22:48;2.17;;;1.40;;
46729;SDS011;32476;50.002;11.854;2023-11-21T04:25:14;1.90;;;1.37;;
46729;SDS011;32476;50.002;11.854;2023-11-21T04:27:43;1.40;;;1.30;;
46729;SDS011;32476;50.002;11.854;2023-11-21T04:30:10;3.20;;;1.23;;
46729;SDS011;32476;50.002;11.854;2023-11-21T04:32:37;2.10;;;1.63;;
46729;SDS011;32476;50.002;11.854;2023-11-21T04:35:04;5.37;;;2.27;;
46729;SDS011;32476;50.002;11.854;2023-11-21T04:37:30;6.80;;;2.20;;
46729;SDS011;32476;50.002;11.854;2023-11-21T04:39:56;1.73;;;1.63;;
46729;SDS011;32476;50.002;11.854;2023-11-21T04:42:23;2.93;;;2.00;;
46729;SDS011;32476;50.002;11.854;2023-11-21T04:44:49;2.60;;;1.93;;
46729;SDS011;32476;50.002;11.854;2023-11-21T04:47:15;3.00;;;1.47;;
46729;SDS011;32476;50.002;11.854;2023-11-21T04:49:42;1.67;;;1.20;;
46729;SDS011;32476;50.002;11.854;2023-11-21T04:52:12;1.47;;;1.27;;
46729;SDS011;32476;50.002;11.854;2023-11-21T04:54:38;2.03;;;1.20;;
46729;SDS011;32476;50.002;11.854;2023-11-21T04:57:06;1.40;;;1.30;;
46729;SDS011;32476;50.002;11.854;2023-11-21T04:59:35;1.40;;;1.30;;
46729;SDS011;32476;50.002;11.854;2023-11-21T05:02:01;2.30;;;1.40;;
46729;SDS011;32476;50.002;11.854;2023-11-21T05:04:28;3.07;;;1.40;;
46729;SDS011;32476;50.002;11.854;2023-11-21T05:06:54;1.33;;;1.23;;
46729;SDS011;32476;50.002;11.854;2023-11-21T05:09:20;1.50;;;1.30;;
46729;SDS011;32476;50.002;11.854;2023-11-21T05:11:49;3.77;;;1.40;;
46729;SDS011;32476;50.002;11.854;2023-11-21T05:14:15;2.57;;;2.03;;
46729;SDS011;32476;50.002;11.854;2023-11-21T05:16:40;2.60;;;2.37;;
46729;SDS011;32476;50.002;11.854;2023-11-21T05:19:09;3.70;;;2.37;;
46729;SDS011;32476;50.002;11.854;2023-11-21T05:21:35;2.63;;;2.43;;
46729;SDS011;32476;50.002;11.854;2023-11-21T05:24:01;5.97;;;2.43;;
46729;SDS011;32476;50.002;11.854;2023-11-21T05:26:28;5.10;;;3.50;;
46729;SDS011;32476;50.002;11.854;2023-11-21T05:28:54;7.83;;;4.33;;
46729;SDS011;32476;50.002;11.854;2023-11-21T05:31:20;7.70;;;4.60;;
46729;SDS011;32476;50.002;11.854;2023-11-21T05:33:48;7.40;;;3.70;;
46729;SDS011;32476;50.002;11.854;2023-11-21T05:36:14;10.37;;;4.77;;
46729;SDS011;32476;50.002;11.854;2023-11-21T05:38:39;8.83;;;4.23;;
46729;SDS011;32476;50.002;11.854;2023-11-21T05:41:08;6.57;;;3.93;;
46729;SDS011;32476;50.002;11.854;2023-11-21T05:43:36;5.17;;;3.93;;
46729;SDS011;32476;50.002;11.854;2023-11-21T05:46:02;6.87;;;3.73;;
46729;SDS011;32476;50.002;11.854;2023-11-21T05:48:29;3.50;;;3.00;;
46729;SDS011;32476;50.002;11.854;2023-11-21T05:50:55;5.00;;;3.43;;
46729;SDS011;32476;50.002;11.854;2023-11-21T05:53:21;3.20;;;2.47;;
46729;SDS011;32476;50.002;11.854;2023-11-21T05:55:48;6.43;;;2.87;;
46729;SDS011;32476;50.002;11.854;2023-11-21T05:58:14;11.23;;;4.43;;
46729;SDS011;32476;50.002;11.854;2023-11-21T06:00:40;10.20;;;4.77;;
46729;SDS011;32476;50.002;11.854;2023-11-21T06:03:07;8.67;;;4.63;;
46729;SDS011;32476;50.002;11.854;2023-11-21T06:05:33;11.97;;;5.63;;
46729;SDS011;32476;50.002;11.854;2023-11-21T06:08:00;4.67;;;4.17;;
46729;SDS011;32476;50.002;11.854;2023-11-21T06:10:27;10.73;;;4.60;;
46729;SDS011;32476;50.002;11.854;2023-11-21T06:12:54;6.37;;;4.53;;
46729;SDS011;32476;50.002;11.854;2023-11-21T06:15:19;5.60;;;4.03;;
46729;SDS011;32476;50.002;11.854;2023-11-21T06:17:49;8.80;;;4.17;;
46729;SDS011;32476;50.002;11.854;2023-11-21T06:20:17;3.43;;;3.00;;
46729;SDS011;32476;50.002;11.854;2023-11-21T06:22:45;3.73;;;2.97;;
46729;SDS011;32476;50.002;11.854;2023-11-21T06:25:13;3.43;;;2.50;;
46729;SDS011;32476;50.002;11.854;2023-11-21T06:27:41;2.73;;;2.43;;
46729;SDS011;32476;50.002;11.854;2023-11-21T06:30:09;5.43;;;2.70;;
46729;SDS011;32476;50.002;11.854;2023-11-21T06:32:38;3.27;;;2.43;;
46729;SDS011;32476;50.002;11.854;2023-11-21T06:35:05;5.00;;;2.90;;
46729;SDS011;32476;50.002;11.854;2023-11-21T06:37:32;3.83;;;2.53;;
46729;SDS011;32476;50.002;11.854;2023-11-21T06:40:00;3.77;;;3.17;;
46729;SDS011;32476;50.002;11.854;2023-11-21T06:42:29;3.80;;;2.77;;
46729;SDS011;32476;50.002;11.854;2023-11-21T06:44:55;5.23;;;3.23;;
46729;SDS011;32476;50.002;11.854;2023-11-21T06:47:26;3.50;;;2.90;;
46729;SDS011;32476;50.002;11.854;2023-11-21T06:49:53;3.83;;;2.53;;
46729;SDS011;32476;50.002;11.854;2023-11-21T06:52:19;3.33;;;2.30;;
46729;SDS011;32476;50.002;11.854;2023-11-21T06:54:47;1.57;;;1.47;;
46729;SDS011;32476;50.002;11.854;2023-11-21T06:57:14;2.60;;;2.10;;
46729;SDS011;32476;50.002;11.854;2023-11-21T06:59:40;2.17;;;1.87;;
46729;SDS011;32476;50.002;11.854;2023-11-21T07:02:08;2.43;;;1.73;;
46729;SDS011;32476;50.002;11.854;2023-11-21T07:04:35;2.43;;;1.90;;
46729;SDS011;32476;50.002;11.854;2023-11-21T07:07:02;1.13;;;1.03;;
46729;SDS011;32476;50.002;11.854;2023-11-21T07:09:30;1.30;;;1.20;;
46729;SDS011;32476;50.002;11.854;2023-11-21T07:11:56;0.90;;;0.90;;
46729;SDS011;32476;50.002;11.854;2023-11-21T07:14:22;0.90;;;0.70;;
46729;SDS011;32476;50.002;11.854;2023-11-21T07:16:49;1.50;;;1.10;;
46729;SDS011;32476;50.002;11.854;2023-11-21T07:19:16;2.20;;;1.63;;
46729;SDS011;32476;50.002;11.854;2023-11-21T07:21:42;3.20;;;2.27;;
46729;SDS011;32476;50.002;11.854;2023-11-21T07:24:10;2.37;;;1.70;;
46729;SDS011;32476;50.002;11.854;2023-11-21T07:26:36;2.07;;;1.50;;
46729;SDS011;32476;50.002;11.854;2023-11-21T07:29:02;2.40;;;1.50;;
46729;SDS011;32476;50.002;11.854;2023-11-21T07:31:31;2.73;;;1.80;;
46729;SDS011;32476;50.002;11.854;2023-11-21T07:33:59;3.00;;;1.50;;
46729;SDS011;32476;50.002;11.854;2023-11-21T07:36:26;5.23;;;1.33;;
46729;SDS011;32476;50.002;11.854;2023-11-21T07:38:54;3.93;;;1.50;;
46729;SDS011;32476;50.002;11.854;2023-11-21T07:41:20;2.67;;;1.30;;
46729;SDS011;32476;50.002;11.854;2023-11-21T07:43:46;2.60;;;1.93;;
46729;SDS011;32476;50.002;11.854;2023-11-21T07:46:13;1.47;;;1.00;;
46729;SDS011;32476;50.002;11.854;2023-11-21T07:48:39;2.70;;;1.43;;
46729;SDS011;32476;50.002;11.854;2023-11-21T07:51:07;1.93;;;1.13;;
46729;SDS011;32476;50.002;11.854;2023-11-21T07:53:35;2.27;;;1.57;;
46729;SDS011;32476;50.002;11.854;2023-11-21T07:56:05;2.53;;;1.63;;
46729;SDS011;32476;50.002;11.854;2023-11-21T07:58:33;2.70;;;1.47;;
46729;SDS011;32476;50.002;11.854;2023-11-21T08:01:01;3.73;;;1.30;;
46729;SDS011;32476;50.002;11.854;2023-11-21T08:03:28;1.50;;;1.20;;
46729;SDS011;32476;50.002;11.854;2023-11-21T08:05:55;4.90;;;1.20;;
46729;SDS011;32476;50.002;11.854;2023-11-21T08:08:26;1.30;;;1.10;;
46729;SDS011;32476;50.002;11.854;2023-11-21T08:10:52;2.07;;;1.20;;
46729;SDS011;32476;50.002;11.854;2023-11-21T08:13:24;2.90;;;1.50;;
46729;SDS011;32476;50.002;11.854;2023-11-21T08:15:56;3.23;;;1.33;;
46729;SDS011;32476;50.002;11.854;2023-11-21T08:18:27;2.77;;;1.97;;
46729;SDS011;32476;50.002;11.854;2023-11-21T08:20:54;3.37;;;2.23;;
46729;SDS011;32476;50.002;11.854;2023-11-21T08:23:20;3.47;;;1.90;;
46729;SDS011;32476;50.002;11.854;2023-11-21T08:25:50;41.83;;;26.90;;
46729;SDS011;32476;50.002;11.854;2023-11-21T08:28:18;14.53;;;5.07;;
46729;SDS011;32476;50.002;11.854;2023-11-21T08:30:44;10.63;;;3.10;;
46729;SDS011;32476;50.002;11.854;2023-11-21T08:33:10;6.57;;;4.17;;
46729;SDS011;32476;50.002;11.854;2023-11-21T08:35:38;5.00;;;3.40;;
46729;SDS011;32476;50.002;11.854;2023-11-21T08:38:04;4.43;;;2.20;;
46729;SDS011;32476;50.002;11.854;2023-11-21T08:40:30;2.77;;;1.80;;
46729;SDS011;32476;50.002;11.854;2023-11-21T08:42:58;2.13;;;1.80;;
46729;SDS011;32476;50.002;11.854;2023-11-21T08:45:24;3.73;;;2.20;;
46729;SDS011;32476;50.002;11.854;2023-11-21T08:47:51;3.93;;;2.00;;
46729;SDS011;32476;50.002;11.854;2023-11-21T08:50:18;2.57;;;2.37;;
46729;SDS011;32476;50.002;11.854;2023-11-21T08:52:44;2.80;;;2.00;;
46729;SDS011;32476;50.002;11.854;2023-11-21T08:55:13;3.43;;;2.23;;
46729;SDS011;32476;50.002;11.854;2023-11-21T08:57:43;1.97;;;1.63;;
46729;SDS011;32476;50.002;11.854;2023-11-21T09:00:09;4.23;;;1.97;;
46729;SDS011;32476;50.002;11.854;2023-11-21T09:02:43;5.53;;;2.27;;
46729;SDS011;32476;50.002;11.854;2023-11-21T09:05:20;5.90;;;2.10;;
46729;SDS011;32476;50.002;11.854;2023-11-21T09:07:47;1.97;;;1.50;;
46729;SDS011;32476;50.002;11.854;2023-11-21T09:10:14;3.90;;;1.80;;
46729;SDS011;32476;50.002;11.854;2023-11-21T09:12:40;3.23;;;2.07;;
46729;SDS011;32476;50.002;11.854;2023-11-21T09:15:09;3.47;;;2.37;;
46729;SDS011;32476;50.002;11.854;2023-11-21T09:17:36;4.30;;;2.30;;
46729;SDS011;32476;50.002;11.854;2023-11-21T09:20:02;2.53;;;1.83;;
46729;SDS011;32476;50.002;11.854;2023-11-21T09:22:32;2.40;;;1.70;;
46729;SDS011;32476;50.002;11.854;2023-11-21T09:24:58;2.17;;;1.70;;
46729;SDS011;32476;50.002;11.854;2023-11-21T09:27:24;1.90;;;1.40;;
46729;SDS011;32476;50.002;11.854;2023-11-21T09:29:52;1.53;;;1.23;;
46729;SDS011;32476;50.002;11.854;2023-11-21T09:32:19;3.90;;;1.60;;
46729;SDS011;32476;50.002;11.854;2023-11-21T09:34:47;3.77;;;2.27;;
46729;SDS011;32476;50.002;11.854;2023-11-21T09:37:15;3.03;;;2.23;;
46729;SDS011;32476;50.002;11.854;2023-11-21T09:39:41;5.07;;;3.07;;
46729;SDS011;32476;50.002;11.854;2023-11-21T09:42:09;8.47;;;4.23;;
46729;SDS011;32476;50.002;11.854;2023-11-21T09:45:03;4.43;;;2.77;;
46729;SDS011;32476;50.002;11.854;2023-11-21T09:47:29;4.43;;;2.13;;
46729;SDS011;32476;50.002;11.854;2023-11-21T09:49:57;3.67;;;2.23;;
46729;SDS011;32476;50.002;11.854;2023-11-21T09:52:26;3.10;;;2.33;;
46729;SDS011;32476;50.002;11.854;2023-11-21T09:54:53;6.83;;;3.10;;
46729;SDS011;32476;50.002;11.854;2023-11-21T09:57:25;4.80;;;3.50;;
46729;SDS011;32476;50.002;11.854;2023-11-21T09:59:52;5.60;;;3.50;;
46729;SDS011;32476;50.002;11.854;2023-11-21T10:02:26;5.03;;;3.20;;
46729;SDS011;32476;50.002;11.854;2023-11-21T10:04:58;6.67;;;4.10;;
46729;SDS011;32476;50.002;11.854;2023-11-21T10:07:26;6.07;;;3.60;;
46729;SDS011;32476;50.002;11.854;2023-11-21T10:09:55;5.00;;;3.63;;
46729;SDS011;32476;50.002;11.854;2023-11-21T10:12:22;5.43;;;4.00;;
46729;SDS011;32476;50.002;11.854;2023-11-21T10:14:51;6.33;;;3.80;;
46729;SDS011;32476;50.002;11.854;2023-11-21T10:17:19;5.67;;;3.80;;
46729;SDS011;32476;50.002;11.854;2023-11-21T10:19:47;6.33;;;3.83;;
46729;SDS011;32476;50.002;11.854;2023-11-21T10:22:15;6.47;;;3.80;;
46729;SDS011;32476;50.002;11.854;2023-11-21T10:24:42;7.03;;;4.03;;
46729;SDS011;32476;50.002;11.854;2023-11-21T10:27:08;8.20;;;4.17;;
46729;SDS011;32476;50.002;11.854;2023-11-21T10:29:36;4.20;;;3.40;;
46729;SDS011;32476;50.002;11.854;2023-11-21T10:32:02;5.07;;;2.97;;
46729;SDS011;32476;50.002;11.854;2023-11-21T10:34:29;4.63;;;3.10;;
46729;SDS011;32476;50.002;11.854;2023-11-21T10:36:56;4.07;;;2.43;;
46729;SDS011;32476;50.002;11.854;2023-11-21T10:39:23;3.30;;;2.70;;
46729;SDS011;32476;50.002;11.854;2023-11-21T10:41:53;3.93;;;2.63;;
46729;SDS011;32476;50.002;11.854;2023-11-21T10:44:21;3.60;;;2.10;;
46729;SDS011;32476;50.002;11.854;2023-11-21T10:46:52;3.47;;;2.20;;
46729;SDS011;32476;50.002;11.854;2023-11-21T10:49:26;3.60;;;2.00;;
46729;SDS011;32476;50.002;11.854;2023-11-21T10:51:53;2.57;;;1.63;;
46729;SDS011;32476;50.002;11.854;2023-11-21T10:54:19;4.27;;;2.27;;
46729;SDS011;32476;50.002;11.854;2023-11-21T10:56:53;4.60;;;2.23;;
46729;SDS011;32476;50.002;11.854;2023-11-21T10:59:22;6.80;;;2.47;;
46729;SDS011;32476;50.002;11.854;2023-11-21T11:01:52;1.93;;;1.67;;
46729;SDS011;32476;50.002;11.854;2023-11-21T11:04:18;5.50;;;2.00;;
46729;SDS011;32476;50.002;11.854;2023-11-21T11:06:50;5.23;;;2.13;;
46729;SDS011;32476;50.002;11.854;2023-11-21T11:09:20;6.70;;;2.40;;
46729;SDS011;32476;50.002;11.854;2023-11-21T11:11:47;6.13;;;2.73;;
46729;SDS011;32476;50.002;11.854;2023-11-21T11:14:14;5.90;;;2.00;;
46729;SDS011;32476;50.002;11.854;2023-11-21T11:16:41;7.07;;;1.87;;
46729;SDS011;32476;50.002;11.854;2023-11-21T11:19:08;5.37;;;2.30;;
46729;SDS011;32476;50.002;11.854;2023-11-21T11:30:13;7.13;;;2.27;;
46729;SDS011;32476;50.002;11.854;2023-11-21T11:32:58;5.60;;;2.53;;
46729;SDS011;32476;50.002;11.854;2023-11-21T11:35:57;6.07;;;2.57;;
46729;SDS011;32476;50.002;11.854;2023-11-21T11:38:33;5.23;;;2.60;;
46729;SDS011;32476;50.002;11.854;2023-11-21T11:41:03;10.47;;;3.33;;
46729;SDS011;32476;50.002;11.854;2023-11-21T11:43:30;9.17;;;2.90;;
46729;SDS011;32476;50.002;11.854;2023-11-21T11:45:58;5.87;;;3.10;;
46729;SDS011;32476;50.002;11.854;2023-11-21T11:48:30;11.20;;;3.43;;
46729;SDS011;32476;50.002;11.854;2023-11-21T11:53:39;17.23;;;4.80;;
46729;SDS011;32476;50.002;11.854;2023-11-21T11:56:25;11.33;;;3.50;;
46729;SDS011;32476;50.002;11.854;2023-11-21T11:58:58;10.17;;;3.30;;
46729;SDS011;32476;50.002;11.854;2023-11-21T12:01:28;14.00;;;4.63;;
46729;SDS011;32476;50.002;11.854;2023-11-21T12:06:59;8.67;;;3.37;;
46729;SDS011;32476;50.002;11.854;2023-11-21T12:09:27;6.93;;;2.73;;
46729;SDS011;32476;50.002;11.854;2023-11-21T12:11:55;11.23;;;4.03;;
46729;SDS011;32476;50.002;11.854;2023-11-21T12:14:25;9.80;;;3.77;;
46729;SDS011;32476;50.002;11.854;2023-11-21T12:16:51;7.33;;;3.60;;
46729;SDS011;32476;50.002;11.854;2023-11-21T12:19:17;9.23;;;3.53;;
46729;SDS011;32476;50.002;11.854;2023-11-21T12:21:45;8.60;;;4.00;;
46729;SDS011;32476;50.002;11.854;2023-11-21T12:24:11;6.30;;;3.30;;
46729;SDS011;32476;50.002;11.854;2023-11-21T12:26:39;19.00;;;4.20;;
46729;SDS011;32476;50.002;11.854;2023-11-21T12:29:08;10.93;;;4.20;;
46729;SDS011;32476;50.002;11.854;2023-11-21T12:31:34;16.90;;;5.00;;
46729;SDS011;32476;50.002;11.854;2023-11-21T12:34:00;12.00;;;5.47;;
46729;SDS011;32476;50.002;11.854;2023-11-21T12:36:28;19.20;;;7.80;;
46729;SDS011;32476;50.002;11.854;2023-11-21T12:38:55;12.67;;;4.93;;
46729;SDS011;32476;50.002;11.854;2023-11-21T12:41:21;16.17;;;7.03;;
46729;SDS011;32476;50.002;11.854;2023-11-21T12:43:49;17.70;;;7.20;;
46729;SDS011;32476;50.002;11.854;2023-11-21T12:46:15;25.53;;;14.63;;
46729;SDS011;32476;50.002;11.854;2023-11-21T12:48:42;14.67;;;6.90;;
46729;SDS011;32476;50.002;11.854;2023-11-21T12:51:11;18.50;;;8.77;;
46729;SDS011;32476;50.002;11.854;2023-11-21T12:53:39;28.13;;;13.00;;
46729;SDS011;32476;50.002;11.854;2023-11-21T12:56:10;15.77;;;6.00;;
46729;SDS011;32476;50.002;11.854;2023-11-21T12:58:38;22.00;;;6.33;;
46729;SDS011;32476;50.002;11.854;2023-11-21T13:01:08;9.13;;;4.30;;
46729;SDS011;32476;50.002;11.854;2023-11-21T13:03:38;21.27;;;8.00;;
46729;SDS011;32476;50.002;11.854;2023-11-21T13:06:05;22.83;;;6.60;;
46729;SDS011;32476;50.002;11.854;2023-11-21T13:08:33;13.17;;;5.33;;
46729;SDS011;32476;50.002;11.854;2023-11-21T13:11:00;15.53;;;6.00;;
46729;SDS011;32476;50.002;11.854;2023-11-21T13:13:28;13.07;;;5.50;;
46729;SDS011;32476;50.002;11.854;2023-11-21T13:15:55;14.57;;;5.07;;
46729;SDS011;32476;50.002;11.854;2023-11-21T13:18:31;15.87;;;5.20;;
46729;SDS011;32476;50.002;11.854;2023-11-21T13:20:58;18.13;;;5.07;;
46729;SDS011;32476;50.002;11.854;2023-11-21T13:23:25;13.03;;;5.00;;
46729;SDS011;32476;50.002;11.854;2023-11-21T13:25:53;17.30;;;5.33;;
46729;SDS011;32476;50.002;11.854;2023-11-21T13:28:20;12.47;;;5.73;;
46729;SDS011;32476;50.002;11.854;2023-11-21T13:30:47;15.80;;;4.93;;
46729;SDS011;32476;50.002;11.854;2023-11-21T13:33:15;13.13;;;4.87;;
46729;SDS011;32476;50.002;11.854;2023-11-21T13:35:47;13.53;;;4.60;;
46729;SDS011;32476;50.002;11.854;2023-11-21T13:38:18;10.90;;;5.90;;
46729;SDS011;32476;50.002;11.854;2023-11-21T13:40:48;14.27;;;5.00;;
46729;SDS011;32476;50.002;11.854;2023-11-21T13:43:20;7.63;;;3.70;;
46729;SDS011;32476;50.002;11.854;2023-11-21T13:45:49;18.93;;;8.73;;
46729;SDS011;32476;50.002;11.854;2023-11-21T13:48:22;11.67;;;5.70;;
46729;SDS011;32476;50.002;11.854;2023-11-21T13:50:56;23.23;;;9.27;;
46729;SDS011;32476;50.002;11.854;2023-11-21T13:53:35;16.73;;;6.93;;
46729;SDS011;32476;50.002;11.854;2023-11-21T13:56:03;17.10;;;7.20;;
46729;SDS011;32476;50.002;11.854;2023-11-21T13:58:29;10.43;;;4.60;;
46729;SDS011;32476;50.002;11.854;2023-11-21T14:01:13;12.57;;;5.53;;
46729;SDS011;32476;50.002;11.854;2023-11-21T14:03:57;7.43;;;4.07;;
46729;SDS011;32476;50.002;11.854;2023-11-21T14:06:46;9.23;;;3.33;;
46729;SDS011;32476;50.002;11.854;2023-11-21T14:09:16;11.27;;;4.30;;
46729;SDS011;32476;50.002;11.854;2023-11-21T14:12:02;8.87;;;3.40;;
46729;SDS011;32476;50.002;11.854;2023-11-21T14:14:31;11.20;;;4.10;;
46729;SDS011;32476;50.002;11.854;2023-11-21T14:16:57;6.97;;;3.47;;
46729;SDS011;32476;50.002;11.854;2023-11-21T14:19:25;6.60;;;3.57;;
46729;SDS011;32476;50.002;11.854;2023-11-21T14:21:57;9.50;;;5.90;;
46729;SDS011;32476;50.002;11.854;2023-11-21T14:24:23;10.43;;;3.03;;
46729;SDS011;32476;50.002;11.854;2023-11-21T14:26:51;8.63;;;2.53;;
46729;SDS011;32476;50.002;11.854;2023-11-21T14:29:17;13.07;;;3.00;;
46729;SDS011;32476;50.002;11.854;2023-11-21T14:31:48;7.93;;;5.17;;
46729;SDS011;32476;50.002;11.854;2023-11-21T14:34:18;33.03;;;19.03;;
46729;SDS011;32476;50.002;11.854;2023-11-21T14:36:44;7.57;;;3.57;;
46729;SDS011;32476;50.002;11.854;2023-11-21T14:39:10;5.63;;;3.03;;
46729;SDS011;32476;50.002;11.854;2023-11-21T14:41:50;5.83;;;3.43;;
46729;SDS011;32476;50.002;11.854;2023-11-21T14:44:17;5.40;;;2.90;;
46729;SDS011;32476;50.002;11.854;2023-11-21T14:46:43;3.03;;;2.20;;
46729;SDS011;32476;50.002;11.854;2023-11-21T14:49:12;3.33;;;1.80;;
46729;SDS011;32476;50.002;11.854;2023-11-21T14:51:52;3.53;;;2.40;;